Time;durP1;ratioP1;P1;durP2;ratioP2;P2;SDS_P1;SDS_P2;PMS_P1;PMS_P2;Temp;Humidity;BMP_temperature;BMP_pressure;BME280_temperature;BME280_humidity;BME280_pressure;Samples;Min_cycle;Max_cycle;Signal;HPM_P1;HPM_P2
2022/06/13 00:02:07;;;;;;;4.15;2.67;;;;;;;22.99;53.26;100851.56;4981829;28;20419;-76
2022/06/13 00:04:51;;;;;;;;;;;;;;;22.80;54.09;100849.97;4968538;28;20050;-76
2022/06/13 00:07:36;;;;;;;6.50;3.30;;;;;;;22.86;53.75;100851.16;4974408;28;19914;-76
2022/06/13 00:10:20;;;;;;;;;;;;;;;22.91;53.50;100853.53;4975646;28;20523;-75
2022/06/13 00:13:05;;;;;;;8.95;3.10;;;;;;;22.81;53.95;100856.28;4975136;28;19914;-76
2022/06/13 00:15:50;;;;;;;4.82;2.58;;;;;;;22.71;53.79;100852.31;4974751;28;20069;-76
2022/06/13 00:18:35;;;;;;;9.18;2.97;;;;;;;22.63;54.15;100847.94;4975120;28;20054;-75
2022/06/13 00:21:27;;;;;;;5.30;2.90;;;;;;;22.67;53.93;100845.97;4974650;28;20122;-76
2022/06/13 00:24:12;;;;;;;7.57;2.75;;;;;;;22.69;53.92;100842.81;4975876;28;20523;-76
2022/06/13 00:26:57;;;;;;;4.05;2.35;;;;;;;22.70;53.98;100842.41;4970259;28;20049;-75
2022/06/13 00:29:44;;;;;;;7.32;3.45;;;;;;;22.75;53.46;100828.19;4975593;28;20412;-76
2022/06/13 00:32:28;;;;;;;7.28;2.47;;;;;;;22.55;54.08;100838.03;4977384;28;20058;-76
2022/06/13 00:35:14;;;;;;;2.92;2.63;;;;;;;22.50;53.97;100832.88;4976773;28;20054;-75
2022/06/13 00:37:58;;;;;;;5.88;2.40;;;;;;;22.36;54.30;100832.81;4973936;28;20416;-77
2022/06/13 00:40:43;;;;;;;;;;;;;;;22.25;54.94;100832.03;4975395;28;20053;-76
2022/06/13 00:43:28;;;;;;;8.45;2.55;;;;;;;22.27;54.93;100829.63;4986724;28;19926;-77
2022/06/13 00:46:34;;;;;;;7.80;2.67;;;;;;;22.20;55.26;100832.41;4975748;28;20041;-76
2022/06/13 00:49:33;;;;;;;4.57;2.75;;;;;;;22.27;55.50;100824.09;4970918;28;20531;-77
2022/06/13 00:52:28;;;;;;;3.50;2.30;;;;;;;22.20;55.12;100826.88;4973903;28;20050;-77
2022/06/13 00:55:15;;;;;;;;;;;;;;;22.13;55.47;100817.34;4977913;28;20057;-76
2022/06/13 00:58:01;;;;;;;4.78;2.30;;;;;;;22.40;54.59;100826.09;4976732;28;19914;-78
2022/06/13 01:00:50;;;;;;;6.20;1.80;;;;;;;22.47;54.36;100825.34;4973880;28;20412;-78
2022/06/13 01:03:35;;;;;;;3.20;1.92;;;;;;;22.54;53.54;100828.94;4982651;28;20053;-77
2022/06/13 01:06:21;;;;;;;8.45;2.63;;;;;;;22.38;53.92;100817.41;4976963;28;20049;-77
2022/06/13 01:09:09;;;;;;;6.28;1.88;;;;;;;22.33;54.09;100819.78;4986522;28;20045;-78
2022/06/13 01:11:54;;;;;;;6.13;2.47;;;;;;;22.31;53.75;100819.34;4971459;28;20428;-77
2022/06/13 01:14:44;;;;;;;3.65;2.50;;;;;;;22.27;54.01;100810.25;4975557;28;20046;-78
2022/06/13 01:17:41;;;;;;;6.05;2.28;;;;;;;22.28;54.26;100803.53;4973108;28;20053;-75
2022/06/13 01:20:34;;;;;;;2.45;2.05;;;;;;;22.18;54.21;100805.88;4977365;28;20062;-78
2022/06/13 01:23:40;;;;;;;2.88;2.35;;;;;;;22.10;54.66;100801.50;4974990;28;20061;-76
2022/06/13 01:26:50;;;;;;;4.53;1.90;;;;;;;22.01;54.53;100798.31;4975832;28;20042;-76
2022/06/13 01:29:50;;;;;;;8.10;2.83;;;;;;;21.96;54.61;100795.13;4981821;28;20045;-77
2022/06/13 01:32:51;;;;;;;3.17;2.03;;;;;;;22.02;54.57;100788.03;4989111;28;20049;-76
2022/06/13 01:35:55;;;;;;;2.85;2.15;;;;;;;22.06;54.29;100789.63;4972884;28;20535;-77
2022/06/13 01:39:08;;;;;;;3.60;2.58;;;;;;;22.04;54.73;100789.22;4978231;28;20049;-78
2022/06/13 01:41:55;;;;;;;4.72;2.28;;;;;;;22.06;54.39;100778.53;4973123;28;20054;-77
2022/06/13 01:45:21;;;;;;;3.47;2.20;;;;;;;22.16;54.55;100775.00;4972795;28;20058;-76
2022/06/13 01:48:06;;;;;;;8.57;2.40;;;;;;;22.04;55.00;100778.16;4986074;28;20411;-78
2022/06/13 01:51:08;;;;;;;6.47;2.72;;;;;;;21.74;56.28;100788.66;4965499;28;20411;-77
2022/06/13 01:54:02;;;;;;;3.45;2.47;;;;;;;21.89;55.70;100786.78;4976774;28;20123;-77
2022/06/13 01:57:27;;;;;;;9.25;2.42;;;;;;;21.92;55.63;100786.78;4966502;28;20046;-78
2022/06/13 02:00:25;;;;;;;;;;;;;;;21.64;55.84;100783.88;4976927;28;20058;-78
2022/06/13 02:03:19;;;;;;;5.28;2.00;;;;;;;21.66;55.89;100782.31;4973839;28;19914;-78
2022/06/13 02:06:12;;;;;;;3.70;2.50;;;;;;;21.66;55.83;100775.97;4972532;28;20050;-77
2022/06/13 02:09:02;;;;;;;8.02;2.63;;;;;;;21.56;56.18;100771.19;4972762;28;20042;-78
2022/06/13 02:11:52;;;;;;;4.18;2.55;;;;;;;21.59;56.31;100767.63;4973656;28;20061;-76
2022/06/13 02:14:49;;;;;;;5.78;2.58;;;;;;;21.61;56.18;100768.06;4990664;28;20050;-77
2022/06/13 02:17:42;;;;;;;3.20;2.58;;;;;;;21.59;56.08;100770.41;4971796;28;20050;-77
2022/06/13 02:20:37;;;;;;;2.85;1.95;;;;;;;21.74;55.99;100766.50;4977603;28;20062;-78
2022/06/13 02:23:27;;;;;;;5.53;2.42;;;;;;;21.95;55.59;100766.63;4973915;28;20050;-77
2022/06/13 02:26:19;;;;;;;5.28;3.00;;;;;;;22.06;54.85;100761.91;4973235;28;20119;-76
2022/06/13 02:29:21;;;;;;;4.50;2.90;;;;;;;21.87;55.53;100756.69;4976877;28;20050;-76
2022/06/13 02:32:15;;;;;;;5.75;2.35;;;;;;;21.90;55.40;100755.91;4978531;28;20041;-77
2022/06/13 02:35:06;;;;;;;4.70;2.13;;;;;;;21.99;54.62;100742.50;4975134;28;20049;-77
2022/06/13 02:38:00;;;;;;;3.97;2.45;;;;;;;22.03;54.81;100745.28;4979904;28;20046;-76
2022/06/13 02:40:51;;;;;;;4.13;2.58;;;;;;;22.03;54.67;100746.09;4973299;28;20046;-77
2022/06/13 02:43:45;;;;;;;5.85;2.60;;;;;;;21.84;55.36;100740.84;4972823;28;20042;-78
2022/06/13 02:46:46;;;;;;;4.53;2.10;;;;;;;21.97;55.33;100750.44;4972867;28;20093;-78
2022/06/13 02:49:41;;;;;;;3.45;2.20;;;;;;;21.95;55.36;100750.00;4972132;28;20057;-78
2022/06/13 02:52:35;;;;;;;4.47;2.03;;;;;;;21.78;55.85;100742.44;4981378;28;20065;-77
2022/06/13 02:55:20;;;;;;;3.70;2.35;;;;;;;21.66;55.48;100740.00;4988191;28;20042;-76
2022/06/13 02:58:28;;;;;;;5.57;2.90;;;;;;;21.65;55.43;100741.19;4982245;28;20042;-79
2022/06/13 03:01:19;;;;;;;3.78;2.80;;;;;;;21.65;55.49;100741.97;4970128;28;20035;-77
2022/06/13 03:04:07;;;;;;;8.13;1.92;;;;;;;21.73;54.40;100735.31;4957349;28;20046;-76
2022/06/13 03:07:02;;;;;;;4.65;2.08;;;;;;;21.56;55.36;100730.47;4956924;28;20046;-76
2022/06/13 03:09:56;;;;;;;5.95;2.70;;;;;;;21.69;55.21;100730.91;4964800;28;20050;-77
2022/06/13 03:12:47;;;;;;;3.28;2.08;;;;;;;21.92;55.43;100747.22;4990560;28;20531;-77
2022/06/13 03:15:40;;;;;;;2.45;1.55;;;;;;;22.16;54.75;100755.59;4983922;28;20062;-77
2022/06/13 03:18:27;;;;;;;4.43;2.28;;;;;;;22.65;53.55;100754.09;4977005;28;20042;-78
2022/06/13 03:21:20;;;;;;;2.92;2.15;;;;;;;22.99;52.40;100751.72;4979553;28;20420;-77
2022/06/13 03:24:21;;;;;;;2.75;2.05;;;;;;;23.12;51.67;100760.38;4973138;28;20538;-77
2022/06/13 03:27:17;;;;;;;2.70;1.75;;;;;;;23.03;51.92;100742.19;4955609;28;20050;-75
2022/06/13 03:30:13;;;;;;;3.00;2.08;;;;;;;22.63;52.35;100734.28;4958993;28;20534;-77
2022/06/13 03:36:22;;;;;;;3.88;1.75;;;;;;;23.01;52.24;100744.56;5046141;23;20040;-63
2022/06/13 03:39:15;;;;;;;6.00;2.15;;;;;;;23.25;51.56;100753.25;5002701;28;20053;-62
2022/06/13 03:42:17;;;;;;;10.55;1.88;;;;;;;23.44;50.87;100756.34;4974331;28;20042;-65
2022/06/13 03:45:10;;;;;;;8.70;1.77;;;;;;;23.50;50.76;100759.53;4976569;28;20058;-62
2022/06/13 03:48:03;;;;;;;4.67;1.80;;;;;;;23.62;50.37;100764.63;4977726;28;20054;-65
2022/06/13 03:50:57;;;;;;;5.22;1.90;;;;;;;23.71;50.28;100761.44;4977648;28;20046;-65
2022/06/13 03:53:52;;;;;;;2.70;2.20;;;;;;;23.59;50.46;100748.00;4977636;28;20042;-64
2022/06/13 03:56:45;;;;;;;3.35;2.08;;;;;;;23.63;50.32;100752.34;4976359;28;20061;-65
2022/06/13 03:59:38;;;;;;;4.38;2.15;;;;;;;23.54;50.59;100745.63;4973739;28;20078;-64
2022/06/13 04:02:27;;;;;;;3.78;2.05;;;;;;;23.66;50.47;100746.00;4972548;28;20050;-65
2022/06/13 04:05:22;;;;;;;6.28;2.25;;;;;;;23.93;49.55;100743.47;4958669;28;20046;-65
2022/06/13 04:08:10;;;;;;;2.58;2.08;;;;;;;24.06;49.41;100752.13;4958341;28;20054;-65
2022/06/13 04:10:58;;;;;;;8.40;1.90;;;;;;;24.17;49.21;100741.78;4972466;28;20046;-65
2022/06/13 04:14:22;;;;;;;4.25;2.00;;;;;;;24.19;49.08;100737.38;4970502;28;20402;-65
2022/06/13 04:17:10;;;;;;;6.25;1.63;;;;;;;24.12;49.22;100744.97;4971242;28;20042;-64
2022/06/13 04:20:05;;;;;;;2.80;1.70;;;;;;;24.13;49.48;100736.19;4968718;28;20046;-66
2022/06/13 04:23:05;;;;;;;4.28;1.65;;;;;;;24.14;49.34;100737.78;4967131;28;20054;-65
2022/06/13 04:26:14;;;;;;;3.78;1.70;;;;;;;24.31;49.00;100736.13;4954983;28;20054;-65
2022/06/13 04:29:09;;;;;;;5.35;1.77;;;;;;;24.52;48.61;100729.63;4955363;28;20054;-64
2022/06/13 04:32:04;;;;;;;7.50;1.52;;;;;;;24.60;48.28;100731.91;4958604;28;20074;-64
2022/06/13 04:34:52;;;;;;;3.40;1.75;;;;;;;24.67;47.94;100726.31;4978062;28;20502;-64
2022/06/13 04:37:39;;;;;;;3.72;2.05;;;;;;;24.79;47.81;100727.00;4983683;28;20062;-64
2022/06/13 04:40:26;;;;;;;4.90;1.70;;;;;;;25.04;47.24;100733.16;4975234;28;20049;-64
2022/06/13 04:43:14;;;;;;;3.30;1.52;;;;;;;25.19;47.00;100736.56;4973416;28;20050;-64
2022/06/13 04:46:05;;;;;;;4.57;1.88;;;;;;;25.00;47.23;100738.72;4954815;28;20391;-64
2022/06/13 04:48:53;;;;;;;6.45;2.03;;;;;;;24.89;47.13;100734.50;4965142;28;20504;-64
2022/06/13 04:51:41;;;;;;;4.10;1.25;;;;;;;24.91;47.49;100726.50;4971758;28;20054;-66
2022/06/13 04:54:38;;;;;;;27.77;2.08;;;;;;;24.99;46.84;100728.78;4961989;28;20054;-64
2022/06/13 04:57:23;;;;;;;7.03;1.27;;;;;;;24.97;47.03;100727.63;4963057;28;20035;-64
2022/06/13 05:00:10;;;;;;;7.32;1.45;;;;;;;24.91;47.15;100720.94;4962713;28;20050;-65
2022/06/13 05:02:56;;;;;;;5.57;1.48;;;;;;;24.98;46.89;100735.59;4963583;28;20046;-64
2022/06/13 05:05:46;;;;;;;5.75;1.80;;;;;;;25.01;47.14;100739.50;4973285;28;20046;-64
2022/06/13 05:08:36;;;;;;;6.15;1.55;;;;;;;24.83;47.81;100741.66;4990696;28;20054;-64
2022/06/13 05:11:53;;;;;;;4.88;1.42;;;;;;;24.76;48.25;100738.94;4961642;28;20514;-64
2022/06/13 05:15:01;;;;;;;11.05;1.55;;;;;;;24.81;48.35;100746.84;4965912;28;20046;-64
2022/06/13 05:18:02;;;;;;;15.75;1.48;;;;;;;24.86;48.72;100735.25;4972076;28;20501;-64
2022/06/13 05:21:03;;;;;;;15.30;2.15;;;;;;;24.86;48.67;100729.69;4975939;28;20041;-64
2022/06/13 05:24:03;;;;;;;10.52;1.65;;;;;;;24.81;48.80;100730.16;4970009;28;20541;-64
2022/06/13 05:26:47;;;;;;;11.88;1.85;;;;;;;24.85;48.71;100728.91;4971560;28;20046;-64
2022/06/13 05:29:33;;;;;;;10.32;2.63;;;;;;;24.80;48.68;100734.13;4984419;28;20057;-65
2022/06/13 05:32:21;;;;;;;7.40;2.40;;;;;;;24.92;48.21;100733.66;4975752;28;20046;-64
2022/06/13 05:35:06;;;;;;;9.77;2.20;;;;;;;24.96;47.92;100731.63;4976123;28;20042;-64
2022/06/13 05:37:54;;;;;;;19.23;2.25;;;;;;;25.05;47.25;100738.28;4985957;28;20041;-64
2022/06/13 05:40:39;;;;;;;35.28;4.07;;;;;;;25.08;46.66;100731.09;4974156;28;20050;-64
2022/06/13 05:43:24;;;;;;;17.00;2.70;;;;;;;25.17;46.46;100722.25;4973758;28;20034;-65
2022/06/13 05:46:16;;;;;;;18.38;3.20;;;;;;;25.31;46.28;100716.53;4975004;28;20034;-64
2022/06/13 05:49:02;;;;;;;22.52;3.35;;;;;;;25.48;45.78;100718.31;4968450;28;20045;-64
2022/06/13 05:51:47;;;;;;;38.60;3.40;;;;;;;25.60;45.71;100712.22;4949502;28;20038;-64
2022/06/13 05:54:32;;;;;;;30.60;2.47;;;;;;;25.60;44.74;100714.22;4973649;28;20042;-64
2022/06/13 05:57:17;;;;;;;24.02;2.70;;;;;;;25.71;44.51;100726.00;4975045;28;20054;-64
2022/06/13 06:00:03;;;;;;;16.67;2.13;;;;;;;25.77;44.71;100724.34;4987967;28;20402;-64
2022/06/13 06:02:56;;;;;;;15.00;2.17;;;;;;;25.71;44.79;100728.78;4967555;28;20043;-64
2022/06/13 06:05:42;;;;;;;16.52;2.75;;;;;;;25.73;44.75;100729.16;4972447;28;20027;-66
2022/06/13 06:08:30;;;;;;;11.27;1.67;;;;;;;25.88;44.68;100736.91;4971707;28;20043;-65
2022/06/13 06:11:15;;;;;;;16.08;2.03;;;;;;;26.31;43.93;100737.09;4973112;28;20050;-65
2022/06/13 06:14:00;;;;;;;9.63;1.98;;;;;;;26.71;42.88;100742.84;4972858;28;20054;-64
2022/06/13 06:16:45;;;;;;;24.70;2.80;;;;;;;27.00;42.67;100737.56;4964671;28;20045;-66
2022/06/13 06:19:30;;;;;;;13.52;2.15;;;;;;;27.15;42.46;100745.25;4973689;28;20049;-64
2022/06/13 06:22:15;;;;;;;38.42;3.72;;;;;;;27.03;42.57;100740.28;4973345;28;20038;-64
2022/06/13 06:25:00;;;;;;;14.50;2.60;;;;;;;26.95;42.77;100735.28;4970411;28;20042;-66
2022/06/13 06:27:45;;;;;;;29.58;2.90;;;;;;;27.06;42.09;100747.84;4973329;28;20062;-65
2022/06/13 06:30:31;;;;;;;15.25;2.30;;;;;;;27.01;43.42;100748.31;4970109;28;20073;-65
2022/06/13 06:33:16;;;;;;;26.35;2.55;;;;;;;26.86;42.82;100744.19;4979398;28;20042;-66
2022/06/13 06:36:01;;;;;;;31.90;5.55;;;;;;;26.56;42.57;100747.88;4979126;28;20433;-65
2022/06/13 06:38:47;;;;;;;30.25;5.07;;;;;;;26.76;42.75;100748.75;4977378;28;20050;-66
2022/06/13 06:41:32;;;;;;;17.70;3.28;;;;;;;26.92;41.88;100752.88;4964546;28;20043;-65
2022/06/13 06:44:17;;;;;;;19.77;3.53;;;;;;;26.58;42.48;100751.03;4972732;28;20521;-65
2022/06/13 06:47:02;;;;;;;10.27;1.77;;;;;;;26.81;40.25;100753.03;4977456;28;20046;-64
2022/06/13 06:49:47;;;;;;;6.93;1.85;;;;;;;27.10;39.62;100759.72;4978254;28;20042;-65
2022/06/13 06:52:32;;;;;;;5.82;1.25;;;;;;;27.52;38.24;100765.72;4940672;28;20057;-66
2022/06/13 07:01:28;;;;;;;8.73;1.92;;;;;;;28.94;36.12;100754.09;4970717;28;20042;-64
2022/06/13 07:04:13;;;;;;;4.40;1.67;;;;;;;29.73;34.11;100754.31;4975804;28;20049;-64
2022/06/13 07:06:59;;;;;;;6.40;1.50;;;;;;;30.95;32.20;100752.81;4970134;28;20050;-64
2022/06/13 07:09:43;;;;;;;6.32;1.40;;;;;;;31.62;30.91;100749.66;4971694;28;20069;-66
2022/06/13 07:12:28;;;;;;;5.95;1.52;;;;;;;31.63;30.70;100748.41;4974563;28;20046;-66
2022/06/13 07:15:14;;;;;;;4.65;1.40;;;;;;;30.98;32.11;100754.75;4975772;28;20066;-68
2022/06/13 07:17:59;;;;;;;9.73;1.40;;;;;;;29.68;34.19;100752.84;4979464;28;20161;-66
2022/06/13 07:20:44;;;;;;;9.55;3.10;;;;;;;29.01;35.58;100757.50;4952493;28;20105;-67
2022/06/13 07:23:29;;;;;;;6.68;1.70;;;;;;;28.77;36.41;100756.91;4962556;28;20062;-66
2022/06/13 07:26:14;;;;;;;6.90;1.42;;;;;;;28.71;35.97;100755.84;4967691;28;20418;-66
2022/06/13 07:28:59;;;;;;;3.50;1.40;;;;;;;28.49;34.75;100761.19;4985148;28;20054;-66
2022/06/13 07:31:55;;;;;;;87.80;16.30;;;;;;;28.31;36.99;100757.22;4974136;28;20057;-65
2022/06/13 07:34:41;;;;;;;57.80;10.32;;;;;;;28.40;34.91;100754.59;4972363;28;20026;-68
2022/06/13 07:40:32;;;;;;;9.75;2.80;;;;;;;28.33;36.11;100743.59;4969599;28;20042;-66
2022/06/13 07:43:25;;;;;;;6.10;1.17;;;;;;;28.30;35.97;100752.84;4968925;28;20049;-66
2022/06/13 07:46:12;;;;;;;4.63;1.20;;;;;;;28.19;35.61;100749.53;4968242;28;20420;-66
2022/06/13 07:48:58;;;;;;;3.40;1.30;;;;;;;28.24;35.03;100752.59;4968040;28;20058;-66
2022/06/13 07:51:44;;;;;;;57.13;4.13;;;;;;;28.15;36.25;100748.81;4976733;28;20057;-70
2022/06/13 07:54:28;;;;;;;9.65;2.85;;;;;;;27.88;36.01;100749.00;4970241;28;20065;-64
2022/06/13 07:57:13;;;;;;;14.23;1.48;;;;;;;28.38;31.92;100757.88;4971331;28;20045;-64
2022/06/13 07:59:59;;;;;;;10.65;2.40;;;;;;;28.81;32.84;100760.41;4974994;28;20046;-66
2022/06/13 08:02:44;;;;;;;10.55;1.17;;;;;;;28.93;31.41;100750.50;4973516;28;20061;-66
2022/06/13 08:05:29;;;;;;;4.50;0.95;;;;;;;28.91;32.28;100750.94;4975560;28;20054;-66
2022/06/13 08:08:14;;;;;;;3.03;1.05;;;;;;;28.96;31.60;100754.44;4977253;28;20054;-66
2022/06/13 08:11:02;;;;;;;2.55;1.10;;;;;;;29.05;30.70;100758.22;4971397;28;20062;-66
2022/06/13 08:13:47;;;;;;;4.18;1.25;;;;;;;29.04;31.50;100751.03;4984772;28;20422;-67
2022/06/13 08:16:34;;;;;;;4.30;0.90;;;;;;;29.06;31.13;100765.34;4983542;28;20053;-67
2022/06/13 08:19:19;;;;;;;2.50;1.10;;;;;;;29.05;31.19;100768.63;4990786;28;20046;-67
2022/06/13 08:22:04;;;;;;;11.57;1.00;;;;;;;29.13;30.55;100767.97;4981645;28;20398;-67
2022/06/13 08:24:50;;;;;;;6.38;1.10;;;;;;;29.25;30.10;100772.06;4980380;28;20406;-66
2022/06/13 08:27:34;;;;;;;2.47;1.10;;;;;;;29.33;30.25;100770.66;4982855;28;20058;-67
2022/06/13 08:30:20;;;;;;;3.45;0.88;;;;;;;29.44;30.16;100771.16;5002002;28;20046;-66
2022/06/13 08:33:05;;;;;;;9.68;1.42;;;;;;;29.44;29.93;100759.16;4982569;28;20062;-66
2022/06/13 08:35:50;;;;;;;6.40;1.35;;;;;;;29.44;30.38;100770.38;4982076;28;20050;-67
2022/06/13 08:38:35;;;;;;;4.60;1.27;;;;;;;29.46;30.61;100765.88;4982575;28;20049;-67
2022/06/13 08:41:28;;;;;;;10.80;1.30;;;;;;;29.58;31.03;100765.16;4981789;28;20054;-67
2022/06/13 08:44:24;;;;;;;1.98;0.95;;;;;;;29.66;31.42;100772.09;4982151;28;20191;-66
2022/06/13 08:47:39;;;;;;;11.30;0.88;;;;;;;29.81;30.38;100772.50;4982607;28;20046;-66
2022/06/13 08:50:50;;;;;;;3.42;0.80;;;;;;;29.79;30.01;100768.56;4981779;28;20062;-67
2022/06/13 08:53:57;;;;;;;2.15;1.10;;;;;;;29.85;29.67;100778.00;4981987;28;20074;-66
2022/06/13 08:56:43;;;;;;;4.70;0.90;;;;;;;29.85;29.83;100769.59;4962297;29;20046;-67
2022/06/13 08:59:34;;;;;;;2.05;1.00;;;;;;;29.87;29.80;100765.09;4961647;28;20047;-66
2022/06/13 09:02:28;;;;;;;5.05;1.20;;;;;;;29.99;31.46;100760.75;4962642;29;20058;-66
2022/06/13 09:05:38;;;;;;;6.67;1.67;;;;;;;29.97;30.61;100757.63;4961503;29;20546;-67
2022/06/13 09:08:47;;;;;;;5.35;0.77;;;;;;;29.97;30.68;100764.00;4976442;28;20415;-67
2022/06/13 09:12:07;;;;;;;3.83;1.38;;;;;;;30.02;30.91;100749.44;4979949;28;20058;-67
2022/06/13 09:15:09;;;;;;;7.85;1.05;;;;;;;30.12;30.07;100755.97;4975280;28;20049;-67
2022/06/13 09:18:02;;;;;;;5.43;0.93;;;;;;;30.27;30.21;100761.91;4971987;28;20050;-63
2022/06/13 09:20:58;;;;;;;3.08;1.08;;;;;;;30.37;30.13;100755.97;4980917;28;20557;-63
2022/06/13 09:24:08;;;;;;;8.43;1.80;;;;;;;30.46;29.92;100763.69;5002861;28;20549;-63
2022/06/13 09:27:09;;;;;;;1.05;0.90;;;;;;;30.41;30.10;100765.03;4971347;28;20053;-63
2022/06/13 09:30:01;;;;;;;6.65;2.00;;;;;;;30.42;30.30;100749.00;4974754;28;20054;-65
2022/06/13 09:32:56;;;;;;;7.15;1.35;;;;;;;30.62;30.63;100752.38;4976498;28;20054;-63
2022/06/13 09:35:54;;;;;;;4.30;1.20;;;;;;;30.68;29.30;100749.78;4977501;28;20045;-63
2022/06/13 09:38:45;;;;;;;5.53;1.83;;;;;;;30.65;30.03;100751.44;4972915;28;20115;-64
2022/06/13 09:42:04;;;;;;;6.47;1.15;;;;;;;30.70;31.02;100752.91;5001116;22;20086;-83
2022/06/13 09:45:21;;;;;;;2.50;1.40;;;;;;;30.76;31.89;100748.28;4972260;28;20054;-82
2022/06/13 09:48:06;;;;;;;4.43;1.25;;;;;;;30.69;29.61;100748.50;4972323;28;20046;-83
2022/06/13 09:51:09;;;;;;;8.63;1.48;;;;;;;30.86;29.23;100749.94;4977340;28;20054;-81
2022/06/13 09:54:29;;;;;;;20.98;2.20;;;;;;;30.93;28.94;100749.72;4973846;28;20057;-84
2022/06/13 09:57:32;;;;;;;3.97;1.73;;;;;;;30.98;30.01;100735.84;4988718;28;20035;-85
2022/06/13 10:00:46;;;;;;;3.45;1.35;;;;;;;31.09;29.41;100740.34;4987373;28;20046;-84
2022/06/13 10:03:54;;;;;;;5.47;1.30;;;;;;;31.09;29.09;100723.50;4994270;28;20053;-82
2022/06/13 10:07:31;;;;;;;;;;;;;;;31.06;29.43;100719.56;4985981;28;20111;-81
2022/06/13 10:14:06;;;;;;;2.67;1.13;;;;;;;31.16;29.96;100718.38;4975519;28;20139;-81
2022/06/13 10:17:20;;;;;;;2.20;0.95;;;;;;;31.29;29.88;100715.53;5008390;28;20041;-83
2022/06/13 10:20:18;;;;;;;2.92;1.15;;;;;;;31.42;28.77;100717.03;4983531;28;20045;-82
2022/06/13 10:23:16;;;;;;;3.25;1.17;;;;;;;31.32;29.66;100709.00;4981858;28;20083;-83
2022/06/13 10:26:07;;;;;;;13.25;1.65;;;;;;;31.43;29.11;100704.53;4997653;28;20046;-83
2022/06/13 10:29:23;;;;;;;15.80;1.25;;;;;;;31.59;28.93;100706.38;4979760;28;20416;-85
2022/06/13 10:32:27;;;;;;;4.43;1.42;;;;;;;31.56;29.12;100692.41;4992545;28;20034;-84
2022/06/13 10:35:31;;;;;;;2.10;1.30;;;;;;;31.63;29.43;100692.97;5007287;28;20042;-83
2022/06/13 10:38:22;;;;;;;2.73;1.30;;;;;;;31.59;29.15;100694.34;4983113;28;20058;-85
2022/06/13 10:41:07;;;;;;;3.28;1.60;;;;;;;31.70;29.97;100689.88;4982035;28;20049;-81
2022/06/13 10:43:53;;;;;;;5.00;1.60;;;;;;;31.81;29.92;100697.88;4986658;28;20053;-82
2022/06/13 10:46:54;;;;;;;3.83;1.67;;;;;;;31.81;30.25;100697.88;4996702;28;20412;-82
2022/06/13 10:49:45;;;;;;;5.53;1.92;;;;;;;31.79;30.18;100686.34;4996776;28;20054;-81
2022/06/13 10:52:35;;;;;;;6.72;2.38;;;;;;;31.91;29.53;100684.66;4974555;28;20088;-80
2022/06/13 10:55:25;;;;;;;3.40;1.80;;;;;;;31.92;29.75;100691.84;4982134;28;20042;-81
2022/06/13 10:58:25;;;;;;;4.13;1.80;;;;;;;31.78;30.21;100679.13;4986649;28;20046;-82
2022/06/13 11:01:24;;;;;;;4.75;1.92;;;;;;;31.90;30.28;100695.09;4987245;28;20045;-81
2022/06/13 11:04:19;;;;;;;4.70;1.55;;;;;;;31.92;29.86;100684.19;4974311;28;20046;-81
2022/06/13 11:07:18;;;;;;;18.35;4.15;;;;;;;32.02;29.57;100676.56;4981160;28;20038;-82
2022/06/13 11:10:04;;;;;;;17.10;5.70;;;;;;;31.80;30.14;100671.00;4984094;28;20428;-79
2022/06/13 11:12:54;;;;;;;14.40;4.25;;;;;;;31.84;30.10;100674.47;4988793;28;20045;-83
2022/06/13 11:25:02;;;;;;;45.42;9.55;;;;;;;31.81;30.32;100678.19;4980488;28;20331;-83
2022/06/13 11:28:00;;;;;;;10.75;3.85;;;;;;;31.72;30.53;100670.50;4990382;28;20326;-83
2022/06/13 11:31:02;;;;;;;6.65;1.48;;;;;;;31.88;29.44;100668.69;4972831;28;20054;-83
2022/06/13 11:33:47;;;;;;;5.07;1.35;;;;;;;31.91;29.31;100664.94;4974501;28;20058;-83
2022/06/13 11:36:34;;;;;;;13.55;1.70;;;;;;;32.21;28.96;100655.69;4985217;28;20061;-83
2022/06/13 11:39:30;;;;;;;7.38;1.42;;;;;;;32.19;29.03;100655.38;4977278;28;20050;-82
2022/06/13 11:42:24;;;;;;;1.77;1.20;;;;;;;32.25;27.71;100653.53;4974994;28;20050;-82
2022/06/13 11:45:22;;;;;;;2.33;1.08;;;;;;;32.27;28.08;100642.56;4969028;28;20053;-83
2022/06/13 11:48:14;;;;;;;5.50;1.42;;;;;;;32.33;28.07;100643.53;4993310;28;20743;-81
2022/06/13 11:51:05;;;;;;;3.75;2.20;;;;;;;32.09;29.25;100632.03;4990742;28;20066;-84
2022/06/13 11:53:57;;;;;;;3.10;1.30;;;;;;;32.11;28.94;100629.56;4987049;28;20046;-80
2022/06/13 11:56:42;;;;;;;7.35;1.52;;;;;;;32.21;28.79;100630.34;4978560;28;20046;-80
2022/06/13 11:59:27;;;;;;;2.45;0.95;;;;;;;32.12;28.78;100614.25;4989711;28;20054;-80
2022/06/13 12:02:42;;;;;;;4.25;1.10;;;;;;;32.36;28.29;100610.84;4975636;28;20054;-83
2022/06/13 12:05:35;;;;;;;3.25;1.20;;;;;;;32.26;28.24;100608.00;4979329;28;20416;-81
2022/06/13 12:08:28;;;;;;;4.63;1.38;;;;;;;32.24;28.46;100602.09;4990815;28;20058;-82
2022/06/13 12:11:13;;;;;;;7.70;1.50;;;;;;;32.53;28.09;100600.84;4976103;28;20069;-81
2022/06/13 12:14:01;;;;;;;2.15;1.50;;;;;;;32.57;27.48;100590.19;4996703;28;20053;-81
2022/06/13 12:17:04;;;;;;;2.97;1.13;;;;;;;32.55;27.64;100584.28;4994890;28;20041;-82
2022/06/13 12:20:00;;;;;;;3.88;1.23;;;;;;;32.64;27.83;100581.47;4996115;28;20050;-81
2022/06/13 12:23:00;;;;;;;2.25;1.38;;;;;;;32.74;27.78;100580.22;4988700;28;20077;-80
2022/06/13 12:25:47;;;;;;;5.32;1.95;;;;;;;32.71;28.23;100572.72;4974995;28;20061;-82
2022/06/13 12:28:48;;;;;;;2.30;1.40;;;;;;;32.89;27.58;100567.03;4973568;28;20119;-81
2022/06/13 12:31:53;;;;;;;5.00;1.45;;;;;;;32.83;27.53;100560.47;4977009;28;20431;-82
2022/06/13 12:34:53;;;;;;;7.82;1.30;;;;;;;32.78;28.12;100558.28;4987865;28;20046;-82
2022/06/13 12:37:56;;;;;;;4.68;1.30;;;;;;;32.79;27.83;100548.59;4992560;28;20057;-81
2022/06/13 12:40:51;;;;;;;3.00;1.77;;;;;;;32.58;29.08;100544.69;4989904;28;20054;-81
2022/06/13 12:43:48;;;;;;;;;;;;;;;32.62;28.86;100550.13;4995836;28;20065;-82
2022/06/13 12:46:35;;;;;;;3.15;0.90;;;;;;;32.52;28.54;100548.59;4987381;28;20383;-82
2022/06/13 12:49:26;;;;;;;3.13;1.80;;;;;;;32.62;29.88;100550.94;4988304;28;20069;-80
2022/06/13 12:52:31;;;;;;;3.97;1.50;;;;;;;32.69;29.95;100544.22;4991583;28;20045;-81
2022/06/13 12:55:39;;;;;;;4.18;1.52;;;;;;;32.64;30.61;100533.59;4989270;28;20054;-81
2022/06/13 12:58:36;;;;;;;5.72;1.83;;;;;;;32.89;29.55;100535.25;4994330;28;20101;-80
2022/06/13 13:01:25;;;;;;;5.60;1.70;;;;;;;32.82;29.25;100544.03;4974551;28;20042;-81
2022/06/13 13:04:32;;;;;;;5.72;1.42;;;;;;;32.82;29.71;100541.22;4974127;28;20050;-80
2022/06/13 13:07:27;;;;;;;4.65;1.25;;;;;;;32.62;30.01;100538.88;4989993;28;20046;-82
2022/06/13 13:10:30;;;;;;;9.23;1.70;;;;;;;32.68;28.22;100534.22;4988592;28;20062;-80
2022/06/13 13:13:17;;;;;;;5.80;1.58;;;;;;;32.61;29.35;100538.09;4995177;28;20042;-80
2022/06/13 13:16:02;;;;;;;2.78;1.30;;;;;;;32.46;30.16;100539.97;4983376;28;20046;-81
2022/06/13 13:18:56;;;;;;;3.88;1.67;;;;;;;32.49;29.70;100536.25;4987161;28;20519;-82
2022/06/13 13:21:55;;;;;;;2.08;1.17;;;;;;;32.52;29.83;100546.56;4986600;28;20053;-82
2022/06/13 13:25:04;;;;;;;2.67;1.33;;;;;;;32.52;29.15;100540.91;4974062;28;20527;-81
2022/06/13 13:28:13;;;;;;;253.38;15.30;;;;;;;32.72;28.01;100546.09;4998719;28;20400;-81
2022/06/13 13:31:17;;;;;;;5.78;1.38;;;;;;;32.66;28.48;100536.72;4991581;28;20408;-82
2022/06/13 13:34:16;;;;;;;3.78;1.38;;;;;;;32.66;28.55;100534.66;4992743;28;20049;-81
2022/06/13 13:37:34;;;;;;;5.38;1.30;;;;;;;32.61;29.59;100528.88;4979511;28;20123;-82
2022/06/13 13:40:30;;;;;;;3.10;1.70;;;;;;;32.52;29.24;100511.97;4976247;28;20050;-81
2022/06/13 13:43:27;;;;;;;2.70;1.20;;;;;;;32.46;29.83;100508.25;4974845;28;20132;-81
2022/06/13 13:46:21;;;;;;;1.38;1.20;;;;;;;32.36;29.78;100504.63;4993571;28;20061;-82
2022/06/13 13:49:31;;;;;;;5.88;1.70;;;;;;;32.41;29.26;100494.81;4984229;28;20058;-82
2022/06/13 13:52:22;;;;;;;3.95;1.30;;;;;;;32.41;28.80;100492.75;4982593;28;20054;-80